Time;durP1;ratioP1;P1;durP2;ratioP2;P2;SDS_P1;SDS_P2;PMS_P1;PMS_P2;Temp;Humidity;BMP_temperature;BMP_pressure;BME280_temperature;BME280_humidity;BME280_pressure;Samples;Min_cycle;Max_cycle;Signal;HPM_P1;HPM_P2
2023/07/09 00:01:41;;;;;;;;;6.00;6.00;;;;;28.69;43.94;101638.69;5099150;27;45470;-76
2023/07/09 00:04:10;;;;;;;;;5.67;5.67;;;;;28.67;43.45;101630.03;5098279;27;46337;-76
2023/07/09 00:06:35;;;;;;;;;7.00;5.67;;;;;28.67;43.93;101630.84;5099074;27;45352;-77
2023/07/09 00:09:01;;;;;;;;;5.00;5.00;;;;;28.69;43.70;101638.69;5097543;27;45432;-76
2023/07/09 00:11:26;;;;;;;;;6.67;5.00;;;;;28.67;43.60;101648.78;5098843;27;45518;-76
2023/07/09 00:13:51;;;;;;;;;7.00;7.00;;;;;28.69;43.14;101652.06;5097662;27;46938;-75
2023/07/09 00:16:23;;;;;;;;;6.00;6.00;;;;;28.62;43.62;101636.81;5098664;27;45337;-76
2023/07/09 00:18:48;;;;;;;;;6.33;6.33;;;;;28.67;43.80;101640.75;5098833;27;45199;-76
2023/07/09 00:21:18;;;;;;;;;6.33;6.33;;;;;28.71;43.12;101648.16;5098884;27;45268;-76
2023/07/09 00:23:43;;;;;;;;;5.33;5.33;;;;;28.73;43.20;101661.31;5096749;27;47255;-76
2023/07/09 00:26:13;;;;;;;;;10.00;7.33;;;;;28.62;44.57;101644.03;5096852;27;45466;-75
2023/07/09 00:28:39;;;;;;;;;7.00;7.00;;;;;28.60;45.08;101649.59;5098953;27;45306;-76
2023/07/09 00:31:04;;;;;;;;;8.00;8.00;;;;;28.51;44.75;101648.16;5097156;27;45607;-76
2023/07/09 00:33:31;;;;;;;;;8.00;6.67;;;;;28.37;45.42;101647.28;5097386;27;45370;-75
2023/07/09 00:35:57;;;;;;;;;10.00;7.00;;;;;28.29;45.56;101653.66;5098653;27;45511;-80
2023/07/09 00:38:24;;;;;;;;;9.00;8.00;;;;;28.16;45.74;101651.78;5097267;27;45438;-77
2023/07/09 00:41:17;;;;;;;;;7.00;7.00;;;;;28.05;45.95;101647.88;5097369;27;45327;-77
2023/07/09 00:43:42;;;;;;;;;6.00;6.00;;;;;28.01;45.98;101657.31;5098082;27;46422;-76
2023/07/09 00:46:23;;;;;;;;;9.33;7.67;;;;;28.04;46.09;101651.56;5096328;27;45407;-76
2023/07/09 00:49:10;;;;;;;;;7.00;7.00;;;;;28.11;46.01;101652.38;5098437;27;45678;-76
2023/07/09 00:51:42;;;;;;;;;8.00;6.00;;;;;28.20;45.84;101669.09;5096727;27;45334;-76
2023/07/09 00:54:31;;;;;;;;;6.67;6.33;;;;;28.21;45.98;101669.91;5098058;27;47212;-76
2023/07/09 00:57:01;;;;;;;;;7.00;6.67;;;;;28.26;46.24;101673.59;5097987;27;45377;-76
2023/07/09 00:59:31;;;;;;;;;6.00;5.00;;;;;28.29;45.76;101675.06;5106136;27;45460;-76
2023/07/09 01:02:00;;;;;;;;;5.00;5.00;;;;;28.31;45.61;101674.88;5097709;27;45807;-77
2023/07/09 01:04:26;;;;;;;;;9.00;6.33;;;;;28.26;45.35;101670.94;5097783;27;45627;-77
2023/07/09 01:06:55;;;;;;;;;5.67;5.67;;;;;28.25;45.38;101666.63;5097878;27;45422;-77
2023/07/09 01:09:22;;;;;;;;;6.00;6.00;;;;;28.34;45.56;101677.16;5096814;27;45285;-77
2023/07/09 01:11:48;;;;;;;;;6.00;6.00;;;;;28.36;45.40;101681.25;5097896;27;45461;-76
2023/07/09 01:14:19;;;;;;;;;6.00;6.00;;;;;28.40;45.45;101684.34;5097059;27;46768;-77
2023/07/09 01:16:57;;;;;;;;;6.67;6.67;;;;;28.41;44.70;101680.66;5097465;27;45348;-77
2023/07/09 01:19:25;;;;;;;;;7.00;5.00;;;;;28.40;44.89;101681.66;5098073;27;45428;-76
2023/07/09 01:21:54;;;;;;;;;5.00;5.00;;;;;28.42;44.97;101678.81;5097302;27;45311;-76
2023/07/09 01:24:47;;;;;;;;;6.67;5.67;;;;;28.46;44.87;101680.88;5097414;27;47109;-76
2023/07/09 01:27:13;;;;;;;;;6.67;6.67;;;;;28.47;44.76;101679.03;5096579;27;45334;-77
2023/07/09 01:29:41;;;;;;;;;5.33;5.33;;;;;28.39;44.46;101674.69;5097482;27;45772;-76
2023/07/09 01:32:07;;;;;;;;;7.33;6.00;;;;;28.45;44.93;101678.41;5097496;27;45534;-77
2023/07/09 01:34:33;;;;;;;;;7.33;7.33;;;;;28.41;44.91;101661.91;5097188;27;46848;-77
2023/07/09 01:36:58;;;;;;;;;6.67;6.67;;;;;28.43;44.66;101670.56;5097630;27;45337;-77
2023/07/09 01:39:25;;;;;;;;;6.67;6.00;;;;;28.41;44.73;101664.59;5097508;27;45336;-76
2023/07/09 01:41:51;;;;;;;;;7.33;7.33;;;;;28.48;44.37;101672.66;5096274;27;45261;-77
2023/07/09 01:44:16;;;;;;;;;8.67;7.00;;;;;28.49;44.88;101676.97;5097109;27;47188;-76
2023/07/09 01:46:43;;;;;;;;;6.67;6.67;;;;;28.54;44.85;101677.19;5095457;27;45345;-76
2023/07/09 01:49:08;;;;;;;;;6.00;6.00;;;;;28.46;44.48;101659.47;5097355;27;45153;-77
2023/07/09 01:51:36;;;;;;;;;4.00;4.00;;;;;28.54;44.35;101673.69;5097359;27;45350;-77
2023/07/09 01:54:01;;;;;;;;;6.00;5.00;;;;;28.48;44.37;101665.44;5097021;27;46628;-77
2023/07/09 01:56:27;;;;;;;;;6.67;6.00;;;;;28.53;44.28;101670.19;5097055;27;45511;-76
2023/07/09 01:58:52;;;;;;;;;7.00;7.00;;;;;28.55;44.87;101670.78;5096655;27;45525;-76
2023/07/09 02:01:19;;;;;;;;;7.33;7.33;;;;;28.54;44.29;101666.47;5097149;27;45448;-76
2023/07/09 02:03:45;;;;;;;;;5.33;5.00;;;;;28.58;44.34;101673.06;5096953;27;46421;-76
2023/07/09 02:06:11;;;;;;;;;7.33;7.33;;;;;28.57;44.25;101659.91;5096941;27;45475;-77
2023/07/09 02:08:37;;;;;;;;;8.33;7.00;;;;;28.60;44.30;101664.81;5097100;27;45324;-77
2023/07/09 02:11:03;;;;;;;;;9.00;7.00;;;;;28.58;44.43;101661.53;5095819;27;45221;-77
2023/07/09 02:13:28;;;;;;;;;9.00;7.33;;;;;28.56;44.54;101648.38;5095895;27;46480;-76
2023/07/09 02:15:53;;;;;;;;;4.33;4.33;;;;;28.56;44.32;101658.25;5096920;27;45378;-77
2023/07/09 02:18:19;;;;;;;;;5.00;5.00;;;;;28.57;44.56;101657.22;5097108;27;45381;-77
2023/07/09 02:20:47;;;;;;;;;8.00;6.00;;;;;28.56;44.37;101650.22;5095676;27;45418;-76
2023/07/09 02:23:12;;;;;;;;;8.33;7.33;;;;;28.61;44.31;101661.13;5096461;27;46298;-76
2023/07/09 02:25:38;;;;;;;;;8.00;7.00;;;;;28.55;43.88;101664.63;5095087;27;45431;-76
2023/07/09 02:28:03;;;;;;;;;6.00;6.00;;;;;28.58;44.42;101665.03;5096750;27;45360;-77
2023/07/09 02:30:29;;;;;;;;;8.33;6.67;;;;;28.58;44.18;101666.88;5096517;27;45384;-77
2023/07/09 02:32:54;;;;;;;;;7.33;7.33;;;;;28.52;44.58;101664.00;5094723;27;46976;-77
2023/07/09 02:35:20;;;;;;;;;8.67;7.33;;;;;28.57;44.60;101662.56;5094490;27;45396;-76
2023/07/09 02:37:46;;;;;;;;;5.00;5.00;;;;;28.56;43.58;101667.09;5096242;27;45370;-76
2023/07/09 02:40:12;;;;;;;;;6.67;6.67;;;;;28.56;43.99;101668.94;5096799;27;45394;-76
2023/07/09 02:42:38;;;;;;;;;6.33;6.33;;;;;28.62;43.83;101670.81;5096270;27;45511;-76
2023/07/09 02:45:04;;;;;;;;;8.33;7.00;;;;;28.58;44.20;101669.56;5096252;27;45346;-76
2023/07/09 02:47:29;;;;;;;;;6.67;6.67;;;;;28.56;43.83;101663.59;5096351;27;45333;-76
2023/07/09 02:49:55;;;;;;;;;5.33;5.33;;;;;28.58;44.39;101666.88;5096656;27;45261;-76
2023/07/09 02:52:20;;;;;;;;;5.67;5.67;;;;;28.60;43.84;101670.16;5096069;27;46760;-76
2023/07/09 02:54:46;;;;;;;;;7.67;6.00;;;;;28.62;43.97;101679.66;5096906;27;45579;-76
2023/07/09 02:57:11;;;;;;;;;6.33;5.67;;;;;28.62;43.86;101679.66;5096143;27;45470;-76
2023/07/09 02:59:37;;;;;;;;;6.00;6.00;;;;;28.58;44.03;101686.44;5096150;27;45333;-76
2023/07/09 03:02:02;;;;;;;;;6.00;6.00;;;;;28.63;43.90;101697.38;5094829;27;47126;-77
2023/07/09 03:04:28;;;;;;;;;5.33;5.33;;;;;28.63;43.74;101694.69;5095026;27;45544;-76
2023/07/09 03:06:53;;;;;;;;;7.00;7.00;;;;;28.61;44.08;101688.72;5095211;27;45758;-77
2023/07/09 03:09:20;;;;;;;;;9.67;7.67;;;;;28.64;43.32;101690.16;5096218;27;45634;-76
2023/07/09 03:11:45;;;;;;;;;6.00;6.00;;;;;28.62;44.12;101668.13;5094628;27;46927;-77
2023/07/09 03:14:11;;;;;;;;;6.33;6.33;;;;;28.60;43.95;101668.31;5094755;27;45324;-76
2023/07/09 03:16:36;;;;;;;;;5.33;5.33;;;;;28.63;43.84;101672.44;5094697;27;45420;-76
2023/07/09 03:19:04;;;;;;;;;7.00;5.33;;;;;28.65;44.03;101675.72;5094898;27;45454;-76
2023/07/09 03:21:30;;;;;;;;;7.33;6.00;;;;;28.62;43.97;101668.13;5095590;27;46373;-76
2023/07/09 03:23:56;;;;;;;;;5.67;5.67;;;;;28.61;43.70;101671.81;5094580;27;45468;-76
2023/07/09 03:26:22;;;;;;;;;7.33;5.33;;;;;28.56;43.73;101666.28;5095800;27;45506;-76
2023/07/09 03:28:47;;;;;;;;;6.00;5.33;;;;;28.62;44.01;101676.16;5095149;27;45619;-76
2023/07/09 03:31:13;;;;;;;;;6.00;6.00;;;;;28.66;43.42;101687.28;5094347;27;47258;-76
2023/07/09 03:33:38;;;;;;;;;7.33;7.33;;;;;28.63;43.68;101681.31;5095943;27;45328;-77
2023/07/09 03:36:05;;;;;;;;;7.00;6.00;;;;;28.63;43.94;101685.81;5095860;27;45347;-77
2023/07/09 03:38:31;;;;;;;;;8.67;6.00;;;;;28.63;43.67;101688.50;5095891;27;45455;-77
2023/07/09 03:40:56;;;;;;;;;6.33;6.00;;;;;28.60;43.88;101683.56;5094996;27;45456;-76
2023/07/09 03:43:22;;;;;;;;;5.33;5.33;;;;;28.58;44.05;101672.22;5095916;27;45349;-77
2023/07/09 03:45:48;;;;;;;;;6.00;6.00;;;;;28.64;43.58;101682.13;5097992;27;45599;-77
2023/07/09 03:48:16;;;;;;;;;7.33;7.33;;;;;28.59;43.97;101681.94;5097965;27;45351;-76
2023/07/09 03:50:44;;;;;;;;;7.00;6.00;;;;;28.60;43.87;101678.19;5097894;27;47035;-77
2023/07/09 03:53:10;;;;;;;;;6.00;6.00;;;;;28.62;43.82;101668.13;5098796;27;45883;-76
2023/07/09 03:55:35;;;;;;;;;6.33;6.33;;;;;28.54;43.77;101649.59;5114625;27;45694;-77
2023/07/09 03:58:02;;;;;;;;;5.00;4.67;;;;;28.65;43.57;101682.97;5099320;27;45374;-76
2023/07/09 04:00:28;;;;;;;;;8.00;7.00;;;;;28.61;43.79;101690.56;5098742;27;45498;-75
2023/07/09 04:02:56;;;;;;;;;6.00;6.00;;;;;28.62;43.68;101701.06;5099060;27;45416;-76
2023/07/09 04:05:25;;;;;;;;;8.00;6.33;;;;;28.59;43.40;101689.97;5097972;27;45513;-77
2023/07/09 04:07:51;;;;;;;;;3.67;3.67;;;;;28.61;43.34;101703.97;5098984;27;45324;-76
2023/07/09 04:10:16;;;;;;;;;5.33;5.33;;;;;28.62;43.70;101717.13;5096985;27;46671;-76
2023/07/09 04:12:42;;;;;;;;;7.33;7.00;;;;;28.65;43.49;101715.88;5097409;27;45323;-76
2023/07/09 04:15:09;;;;;;;;;6.00;6.00;;;;;28.65;43.54;101721.25;5098731;27;45353;-76
2023/07/09 04:17:35;;;;;;;;;6.33;6.33;;;;;28.55;43.32;101694.88;5097539;27;45599;-77
2023/07/09 04:20:05;;;;;;;;;6.67;6.67;;;;;28.60;43.80;101689.75;5098587;27;45377;-77
2023/07/09 04:22:31;;;;;;;;;6.00;6.00;;;;;28.65;43.43;101702.50;5097304;27;45543;-76
2023/07/09 04:24:57;;;;;;;;;6.33;6.33;;;;;28.61;43.59;101703.97;5098483;27;45404;-76
2023/07/09 04:27:27;;;;;;;;;5.67;4.67;;;;;28.60;43.35;101708.47;5099020;27;45589;-76
2023/07/09 04:29:52;;;;;;;;;6.00;6.00;;;;;28.63;43.53;101713.44;5097190;27;46531;-76
2023/07/09 04:32:18;;;;;;;;;5.00;5.00;;;;;28.65;43.00;101702.50;5097164;27;45481;-76
2023/07/09 04:34:43;;;;;;;;;6.00;6.00;;;;;28.62;43.59;101697.59;5097077;27;45438;-77
2023/07/09 04:37:11;;;;;;;;;6.67;6.67;;;;;28.63;43.85;101694.69;5098925;27;45285;-77
2023/07/09 04:39:37;;;;;;;;;5.33;5.00;;;;;28.61;43.70;101703.97;5098069;27;47491;-76
2023/07/09 04:42:03;;;;;;;;;5.00;5.00;;;;;28.64;43.52;101706.22;5098069;27;45304;-76
2023/07/09 04:44:28;;;;;;;;;7.00;5.67;;;;;28.65;43.72;101705.19;5096788;27;45290;-76
2023/07/09 04:46:54;;;;;;;;;7.00;5.67;;;;;28.60;43.27;101699.63;5096884;27;45242;-76
2023/07/09 04:49:19;;;;;;;;;5.00;5.00;;;;;28.64;42.84;101706.22;5096972;27;48128;-76
2023/07/09 04:51:44;;;;;;;;;6.00;6.00;;;;;28.63;43.30;101713.44;5093167;27;45311;-76
2023/07/09 04:54:10;;;;;;;;;5.33;5.33;;;;;28.66;43.03;101716.72;5076396;27;45398;-76
2023/07/09 04:56:37;;;;;;;;;6.67;6.67;;;;;28.63;43.50;101721.47;5075753;28;45510;-76
2023/07/09 04:59:02;;;;;;;;;7.00;5.67;;;;;28.69;43.54;101730.53;5084849;27;45510;-76
2023/07/09 05:01:28;;;;;;;;;5.67;5.67;;;;;28.69;43.30;101724.34;5113718;27;45387;-77
2023/07/09 05:03:54;;;;;;;;;7.33;7.00;;;;;28.65;43.17;101717.78;5098124;27;45358;-77
2023/07/09 05:06:21;;;;;;;;;5.00;5.00;;;;;28.68;43.34;101720.00;5096874;27;45462;-77
2023/07/09 05:08:48;;;;;;;;;5.33;5.33;;;;;28.66;43.59;101714.03;5097103;27;46382;-76
2023/07/09 05:11:14;;;;;;;;;8.00;8.00;;;;;28.64;42.91;101716.94;5098054;27;45257;-76
2023/07/09 05:13:40;;;;;;;;;6.33;6.33;;;;;28.66;42.85;101720.22;5096742;27;45348;-76
2023/07/09 05:16:05;;;;;;;;;7.00;7.00;;;;;28.68;43.15;101730.72;5096158;27;45473;-76
2023/07/09 05:18:30;;;;;;;;;7.00;6.33;;;;;28.67;43.44;101732.59;5096633;27;47959;-77
2023/07/09 05:20:56;;;;;;;;;6.00;6.00;;;;;28.70;43.11;101728.69;5096024;27;45299;-76
2023/07/09 05:23:21;;;;;;;;;7.67;6.33;;;;;28.68;43.30;101722.69;5097608;27;45360;-76
2023/07/09 05:25:47;;;;;;;;;6.67;6.67;;;;;28.73;43.02;101726.41;5097976;27;45384;-76
2023/07/09 05:28:12;;;;;;;;;6.67;6.67;;;;;28.73;43.35;101725.56;5097675;27;46485;-77
2023/07/09 05:30:41;;;;;;;;;6.33;6.33;;;;;28.69;43.42;101705.59;5097591;27;45349;-76
2023/07/09 05:33:07;;;;;;;;;7.33;7.33;;;;;28.70;43.04;101712.63;5097677;27;45328;-77
2023/07/09 05:35:32;;;;;;;;;7.00;5.00;;;;;28.70;43.00;101713.41;5097540;27;45322;-76
2023/07/09 05:37:57;;;;;;;;;6.00;5.00;;;;;28.74;43.20;101728.06;5097558;27;46288;-76
2023/07/09 05:40:23;;;;;;;;;6.00;6.00;;;;;28.72;43.45;101726.63;5096047;27;45357;-76
2023/07/09 05:42:48;;;;;;;;;5.33;5.33;;;;;28.71;42.78;101723.13;5096048;27;45202;-76
2023/07/09 05:45:15;;;;;;;;;7.00;6.00;;;;;28.73;43.28;101718.38;5096370;27;45598;-76
2023/07/09 05:47:41;;;;;;;;;5.67;5.67;;;;;28.72;42.91;101713.25;5097472;27;45422;-76
2023/07/09 05:50:06;;;;;;;;;6.67;6.00;;;;;28.73;43.05;101702.31;5097057;27;45384;-76
2023/07/09 05:52:32;;;;;;;;;8.00;6.33;;;;;28.65;42.91;101682.97;5092169;27;45316;-76
2023/07/09 05:54:59;;;;;;;;;6.00;5.00;;;;;28.69;42.90;101687.69;5076763;27;45616;-76
2023/07/09 05:57:24;;;;;;;;;6.67;5.33;;;;;28.68;42.89;101691.38;5076510;27;45528;-76
2023/07/09 05:59:49;;;;;;;;;5.67;5.00;;;;;28.69;42.88;101711.78;5105287;27;45434;-76
2023/07/09 06:02:20;;;;;;;;;5.67;5.67;;;;;28.72;42.91;101719.41;5097041;27;45416;-77
2023/07/09 06:04:46;;;;;;;;;6.33;6.33;;;;;28.73;43.48;101736.28;5096832;27;45443;-76
2023/07/09 06:07:13;;;;;;;;;5.33;5.00;;;;;28.68;43.02;101738.75;5095402;27;47226;-77
2023/07/09 06:09:39;;;;;;;;;6.00;6.00;;;;;28.72;43.22;101748.03;5096708;27;45413;-76
2023/07/09 06:12:08;;;;;;;;;5.33;4.33;;;;;28.72;43.03;101746.19;5095485;27;45373;-76
2023/07/09 06:14:34;;;;;;;;;7.00;6.00;;;;;28.71;43.33;101736.50;5097038;27;45386;-77
2023/07/09 06:17:00;;;;;;;;;5.67;5.00;;;;;28.71;43.33;101730.31;5095462;27;47286;-76
2023/07/09 06:19:26;;;;;;;;;6.00;6.00;;;;;28.77;42.70;101731.34;5095058;27;45408;-76
2023/07/09 06:21:51;;;;;;;;;6.00;6.00;;;;;28.70;42.73;101712.63;5096908;27;45420;-76
2023/07/09 06:24:17;;;;;;;;;8.00;7.00;;;;;28.75;42.76;101718.19;5097090;27;45547;-76
2023/07/09 06:26:42;;;;;;;;;6.00;6.00;;;;;28.71;42.96;101716.94;5095435;27;47162;-76
2023/07/09 06:29:08;;;;;;;;;6.00;6.00;;;;;28.71;43.31;101716.94;5094905;27;45422;-76
2023/07/09 06:31:33;;;;;;;;;5.67;5.67;;;;;28.74;42.99;101724.56;5096864;27;45427;-76
2023/07/09 06:33:58;;;;;;;;;5.33;5.33;;;;;28.75;42.74;101723.53;5094812;27;45606;-76
2023/07/09 06:36:24;;;;;;;;;6.00;6.00;;;;;28.74;43.12;101720.03;5096743;27;46123;-77
2023/07/09 06:38:49;;;;;;;;;5.67;5.67;;;;;28.76;42.87;101730.53;5095238;27;45464;-76
2023/07/09 06:41:15;;;;;;;;;6.00;5.00;;;;;28.76;42.95;101735.88;5096728;27;45498;-76
2023/07/09 06:43:41;;;;;;;;;6.67;6.67;;;;;28.74;42.91;101738.78;5095414;27;45386;-76
2023/07/09 06:46:10;;;;;;;;;5.33;5.33;;;;;28.75;43.20;101744.97;5096332;27;46450;-76
2023/07/09 06:48:36;;;;;;;;;4.00;4.00;;;;;28.73;42.60;101747.81;5096012;27;45236;-76
2023/07/09 06:51:01;;;;;;;;;6.33;5.00;;;;;28.71;43.14;101755.25;5096275;27;45303;-77
2023/07/09 06:53:28;;;;;;;;;5.00;5.00;;;;;28.78;43.37;101783.91;5112205;27;45430;-76
2023/07/09 06:55:55;;;;;;;;;5.33;5.00;;;;;28.71;42.80;101784.69;5096516;27;47490;-76
2023/07/09 06:58:22;;;;;;;;;4.00;4.00;;;;;28.74;42.87;101804.88;5096031;27;45593;-76
2023/07/09 07:00:48;;;;;;;;;6.00;6.00;;;;;28.78;43.11;101818.72;5096299;27;45253;-76
2023/07/09 07:03:14;;;;;;;;;6.00;5.00;;;;;28.72;43.15;101807.78;5094869;27;45252;-76
2023/07/09 07:05:44;;;;;;;;;6.33;6.33;;;;;28.73;43.03;101809.41;5096087;27;45386;-76
2023/07/09 07:08:10;;;;;;;;;5.33;4.33;;;;;28.68;42.93;101805.69;5096264;27;45443;-77
2023/07/09 07:10:36;;;;;;;;;5.00;5.00;;;;;28.70;42.86;101807.13;5096298;27;45534;-76
2023/07/09 07:13:01;;;;;;;;;5.00;5.00;;;;;28.72;42.64;101813.13;5096312;27;45370;-76
2023/07/09 07:15:27;;;;;;;;;4.33;4.33;;;;;28.71;42.91;101816.00;5095853;27;46328;-77
2023/07/09 07:17:52;;;;;;;;;4.67;4.67;;;;;28.70;43.11;101814.38;5094642;27;45347;-76
2023/07/09 07:20:18;;;;;;;;;4.67;4.67;;;;;28.61;42.97;101792.28;5095849;27;45438;-77
2023/07/09 07:22:44;;;;;;;;;5.67;5.67;;;;;28.74;42.76;101816.44;5099715;27;45539;-76
2023/07/09 07:25:10;;;;;;;;;7.67;6.00;;;;;28.73;42.93;101828.16;5099793;27;46272;-77
2023/07/09 07:27:37;;;;;;;;;6.00;6.00;;;;;28.75;42.82;101833.31;5098400;27;45403;-77
2023/07/09 07:30:02;;;;;;;;;4.33;4.33;;;;;28.67;42.88;101810.25;5099470;27;45423;-76
2023/07/09 07:32:27;;;;;;;;;4.67;4.67;;;;;28.73;42.95;101830.00;5097793;27;45459;-77
2023/07/09 07:34:54;;;;;;;;;6.67;6.67;;;;;28.73;43.14;101848.75;5097956;27;47577;-77
2023/07/09 07:37:20;;;;;;;;;4.67;4.00;;;;;28.71;42.65;101851.63;5099670;27;45324;-76
2023/07/09 07:39:46;;;;;;;;;6.67;5.67;;;;;28.74;43.00;101863.78;5099545;27;45291;-76
2023/07/09 07:42:12;;;;;;;;;4.67;4.67;;;;;28.75;42.84;101862.78;5099350;27;45356;-76
2023/07/09 07:44:37;;;;;;;;;5.00;4.00;;;;;28.76;42.84;101859.06;5097919;27;47043;-76
2023/07/09 07:47:03;;;;;;;;;5.00;5.00;;;;;28.68;43.05;101841.31;5097007;27;45302;-76
2023/07/09 07:49:28;;;;;;;;;6.00;6.00;;;;;28.78;42.55;101864.22;5097640;27;45328;-77
2023/07/09 07:51:54;;;;;;;;;5.33;5.33;;;;;28.72;42.34;101872.03;5094562;27;45274;-77
2023/07/09 07:54:19;;;;;;;;;7.00;7.00;;;;;28.73;42.72;101876.34;5077289;27;47651;-76
2023/07/09 07:56:44;;;;;;;;;5.33;5.33;;;;;28.78;42.52;101878.41;5078834;27;45412;-76
2023/07/09 07:59:10;;;;;;;;;5.00;5.00;;;;;28.72;43.21;101872.03;5085616;27;45463;-76
2023/07/09 08:01:35;;;;;;;;;5.33;5.00;;;;;28.70;42.93;101867.91;5097762;27;45288;-76
2023/07/09 08:04:02;;;;;;;;;5.33;5.33;;;;;28.73;42.68;101886.22;5098855;27;46478;-77
2023/07/09 08:06:28;;;;;;;;;5.00;5.00;;;;;28.76;42.81;101903.75;5097635;27;45894;-77
2023/07/09 08:08:53;;;;;;;;;5.00;5.00;;;;;28.73;43.14;101911.16;5098921;27;45465;-76
2023/07/09 08:11:19;;;;;;;;;5.33;5.33;;;;;28.69;43.21;101928.66;5097505;27;45542;-76
2023/07/09 08:13:44;;;;;;;;;7.00;4.00;;;;;28.71;42.79;101955.22;5098662;27;45608;-76
2023/07/09 08:16:11;;;;;;;;;5.67;5.00;;;;;28.73;43.24;101947.81;5097009;27;45424;-76
2023/07/09 08:18:37;;;;;;;;;5.00;4.33;;;;;28.72;42.77;101922.09;5098946;27;45472;-77
2023/07/09 08:21:03;;;;;;;;;7.33;7.33;;;;;28.70;43.13;101892.00;5097572;27;45583;-76
2023/07/09 08:23:28;;;;;;;;;5.00;4.00;;;;;28.74;43.31;101893.25;5098539;27;46206;-76
2023/07/09 08:26:02;;;;;;;;;5.00;5.00;;;;;28.75;42.91;101913.66;5097368;27;45421;-76
2023/07/09 08:28:28;;;;;;;;;5.00;5.00;;;;;28.69;42.66;101925.16;5098764;27;45310;-77
2023/07/09 08:30:54;;;;;;;;;5.00;5.00;;;;;28.70;42.57;101929.50;5096276;27;45249;-76
2023/07/09 08:33:22;;;;;;;;;4.00;4.00;;;;;28.69;42.81;101919.81;5097753;27;46378;-77
2023/07/09 08:35:52;;;;;;;;;7.00;6.33;;;;;28.71;42.64;101910.53;5098314;27;45541;-76
2023/07/09 08:38:18;;;;;;;;;3.00;3.00;;;;;28.71;43.19;101897.16;5097666;27;45452;-76
2023/07/09 08:40:59;;;;;;;;;5.00;4.00;;;;;28.73;42.99;101879.03;5098487;27;45594;-76
2023/07/09 08:43:38;;;;;;;;;4.00;4.00;;;;;28.72;42.75;101842.59;5096930;27;46065;-76
2023/07/09 08:46:24;;;;;;;;;3.33;3.33;;;;;28.70;43.22;101831.22;5096568;27;45328;-77
2023/07/09 08:48:52;;;;;;;;;6.00;5.00;;;;;28.71;42.65;101830.22;5098317;27;45284;-76
2023/07/09 08:51:29;;;;;;;;;5.00;5.00;;;;;28.73;43.04;101825.47;5097965;27;45407;-76
2023/07/09 08:53:58;;;;;;;;;7.00;5.00;;;;;28.72;43.01;101821.16;5096919;27;46467;-76
2023/07/09 08:56:26;;;;;;;;;5.00;5.00;;;;;28.76;42.87;101831.44;5097784;27;45236;-76
2023/07/09 08:58:55;;;;;;;;;6.00;6.00;;;;;28.73;43.19;101817.44;5097816;27;45325;-76
2023/07/09 09:01:49;;;;;;;;;4.33;4.33;;;;;28.73;43.19;101814.78;5097961;27;45481;-75
2023/07/09 09:04:36;;;;;;;;;3.67;3.67;;;;;28.76;42.74;101818.91;5097909;27;46572;-76
2023/07/09 09:07:23;;;;;;;;;4.33;4.33;;;;;28.73;42.98;101816.63;5096635;27;45446;-80
2023/07/09 09:10:02;;;;;;;;;5.00;5.00;;;;;28.73;43.12;101824.66;5096804;27;45305;-80
2023/07/09 09:12:36;;;;;;;;;5.67;5.00;;;;;28.78;43.08;101824.88;5097697;27;45526;-80
2023/07/09 09:15:16;;;;;;;;;4.33;4.33;;;;;28.72;42.97;101806.94;5097579;27;46561;-80
2023/07/09 09:17:44;;;;;;;;;5.67;5.67;;;;;28.74;42.89;101794.19;5097715;27;45250;-80
2023/07/09 09:20:17;;;;;;;;;4.00;4.00;;;;;28.78;42.41;101790.06;5097560;27;45508;-80
2023/07/09 09:22:50;;;;;;;;;7.33;5.00;;;;;28.78;42.81;101795.41;5096714;27;45481;-79
2023/07/09 09:25:21;;;;;;;;;2.00;2.00;;;;;28.84;42.97;101799.13;5097776;27;45598;-80
2023/07/09 09:27:46;;;;;;;;;4.67;4.67;;;;;28.83;42.79;101798.31;5097272;27;45404;-80
2023/07/09 09:30:23;;;;;;;;;4.67;4.67;;;;;28.88;42.96;101794.22;5096395;27;45385;-85
2023/07/09 09:33:00;;;;;;;;;4.00;3.00;;;;;28.84;43.28;101780.38;5097517;27;45416;-81
2023/07/09 09:35:28;;;;;;;;;1.67;1.00;;;;;28.65;43.21;101782.81;5097094;27;45620;-78
2023/07/09 09:37:57;;;;;;;;;3.33;1.00;;;;;28.53;43.52;101787.97;5097627;27;45454;-81
2023/07/09 09:40:24;;;;;;;;;1.00;1.00;;;;;28.44;44.33;101781.94;5097043;27;45343;-82
2023/07/09 09:42:51;;;;;;;;;1.00;1.00;;;;;28.35;44.46;101783.97;5096910;27;45564;-77
2023/07/09 09:45:19;;;;;;;;;3.00;3.00;;;;;28.33;44.98;101788.69;5097304;27;46421;-76
2023/07/09 09:47:45;;;;;;;;;1.33;1.33;;;;;28.29;45.19;101798.97;5096648;27;45379;-74
2023/07/09 09:50:19;;;;;;;;;1.00;1.00;;;;;28.09;44.50;101780.16;5095527;27;45537;-74
2023/07/09 09:52:46;;;;;;;;;0.33;0.33;;;;;28.21;44.53;101807.16;5095900;27;45661;-73
2023/07/09 09:55:30;;;;;;;;;2.00;1.00;;;;;28.25;44.81;101826.34;5094894;27;47933;-76
2023/07/09 09:57:56;;;;;;;;;2.33;2.00;;;;;28.11;44.39;101812.06;5094345;27;45418;-76
2023/07/09 10:00:28;;;;;;;;;3.00;2.00;;;;;28.19;44.64;101827.94;5096843;27;45564;-74
2023/07/09 10:03:06;;;;;;;;;1.33;1.33;;;;;28.20;43.60;101842.16;5096411;27;45545;-76
2023/07/09 10:05:44;;;;;;;;;1.67;1.67;;;;;28.11;43.05;101842.31;5096765;27;45681;-78
2023/07/09 10:08:31;;;;;;;;;0.00;0.00;;;;;28.03;41.91;101826.41;5095973;27;45612;-82
2023/07/09 10:11:07;;;;;;;;;2.67;2.00;;;;;27.92;41.26;101831.31;5096368;27;45420;-77
2023/07/09 10:13:43;;;;;;;;;1.00;0.00;;;;;27.82;41.46;101838.84;5092015;27;45435;-78
2023/07/09 10:16:15;;;;;;;;;1.00;1.00;;;;;27.80;41.57;101856.94;5087722;27;46223;-76
2023/07/09 10:18:48;;;;;;;;;2.33;1.00;;;;;27.76;41.56;101869.84;5086615;27;45432;-76
2023/07/09 10:21:20;;;;;;;;;1.00;1.00;;;;;27.82;40.97;101879.78;5096220;27;45378;-77
2023/07/09 10:24:08;;;;;;;;;3.33;1.00;;;;;27.79;41.22;101872.13;5096422;27;45297;-77
2023/07/09 10:26:45;;;;;;;;;0.00;0.00;;;;;27.93;41.18;101883.78;5096012;27;46387;-78
2023/07/09 10:29:32;;;;;;;;;1.67;0.00;;;;;28.00;40.92;101891.03;5092236;27;45440;-77
2023/07/09 10:32:03;;;;;;;;;2.00;0.33;;;;;28.04;41.12;101894.97;5092974;27;45262;-77
2023/07/09 10:34:50;;;;;;;;;2.00;0.00;;;;;28.07;41.00;101899.91;5095802;27;45621;-77
2023/07/09 10:38:00;;;;;;;;;2.00;2.00;;;;;28.11;40.67;101895.81;5095678;27;45386;-75
2023/07/09 10:40:33;;;;;;;;;0.33;0.00;;;;;28.11;40.67;101908.34;5095423;27;45544;-77
2023/07/09 10:43:01;;;;;;;;;2.00;1.67;;;;;28.18;40.66;101903.91;5094588;27;45435;-77
2023/07/09 10:45:47;;;;;;;;;1.33;1.00;;;;;28.21;41.03;101898.13;5095537;27;45487;-78
2023/07/09 10:48:18;;;;;;;;;4.00;1.00;;;;;28.16;40.57;101890.69;5095437;27;46624;-77
2023/07/09 10:50:52;;;;;;;;;3.00;2.00;;;;;28.20;40.76;101893.81;5095398;27;45469;-77
2023/07/09 10:53:32;;;;;;;;;0.33;0.33;;;;;28.20;40.82;101888.47;5093828;27;45473;-77
2023/07/09 10:56:10;;;;;;;;;2.33;1.67;;;;;28.23;40.45;101882.72;5094378;27;45623;-76
2023/07/09 10:58:44;;;;;;;;;3.67;2.00;;;;;28.24;40.45;101886.22;5095091;27;46558;-77
2023/07/09 11:01:17;;;;;;;;;1.33;1.33;;;;;28.32;40.81;101887.91;5097148;27;45447;-78
2023/07/09 11:03:50;;;;;;;;;3.67;1.00;;;;;28.33;40.29;101884.22;5096124;27;45522;-79
2023/07/09 11:06:40;;;;;;;;;3.00;1.00;;;;;28.31;40.60;101883.59;5101559;27;45635;-77
2023/07/09 11:09:25;;;;;;;;;0.33;0.33;;;;;28.26;40.37;101874.28;5091401;27;46747;-77
2023/07/09 11:11:55;;;;;;;;;1.00;1.00;;;;;28.34;40.54;101880.53;5094606;27;45378;-79
2023/07/09 11:14:46;;;;;;;;;1.67;1.00;;;;;28.39;40.55;101878.06;5094314;27;45444;-75
2023/07/09 11:17:18;;;;;;;;;2.00;2.00;;;;;28.33;40.95;101876.19;5094622;27;45473;-76
2023/07/09 11:19:46;;;;;;;;;4.00;2.00;;;;;28.38;40.61;101877.25;5094841;27;46599;-77
2023/07/09 11:22:40;;;;;;;;;2.00;2.00;;;;;28.41;40.88;101876.00;5095203;27;45418;-77
2023/07/09 11:25:31;;;;;;;;;1.67;1.67;;;;;28.42;40.68;101893.72;5095377;27;45452;-76
2023/07/09 11:28:05;;;;;;;;;0.33;0.33;;;;;28.41;41.23;101894.75;5094984;27;45651;-76
2023/07/09 11:30:31;;;;;;;;;2.00;2.00;;;;;28.40;41.18;101898.44;5102617;27;48216;-77
2023/07/09 11:33:02;;;;;;;;;2.67;2.00;;;;;28.38;41.05;101887.94;5099552;27;45367;-75